createdAt,value
2023-02-19T00:00:56.504Z,8.84
2023-02-19T00:03:28.301Z,8.92
2023-02-19T00:06:10.346Z,8.93
2023-02-19T00:08:54.680Z,9.00
2023-02-19T00:11:40.475Z,9.03
2023-02-19T00:14:20.362Z,9.06
2023-02-19T00:17:01.991Z,9.14
2023-02-19T00:22:43.719Z,9.17
2023-02-19T00:25:21.647Z,9.11
2023-02-19T00:28:04.098Z,9.14
2023-02-19T00:30:43.205Z,9.23
2023-02-19T00:33:24.726Z,9.30
2023-02-19T00:36:02.260Z,9.20
2023-02-19T00:38:41.759Z,9.41
2023-02-19T00:41:29.233Z,9.44
2023-02-19T00:44:05.913Z,9.48
2023-02-19T00:46:47.474Z,9.57
2023-02-19T00:49:26.025Z,9.60
2023-02-19T00:52:02.409Z,9.62
2023-02-19T00:54:44.632Z,9.62
2023-02-19T00:57:17.058Z,9.60
2023-02-19T00:59:47.442Z,9.57
2023-02-19T01:02:24.908Z,9.51
2023-02-19T01:05:09.870Z,9.30
2023-02-19T01:07:50.405Z,9.45
2023-02-19T01:10:31.405Z,9.45
2023-02-19T01:13:12.654Z,9.40
2023-02-19T01:15:53.152Z,9.37
2023-02-19T01:18:33.963Z,9.31
2023-02-19T01:21:14.917Z,9.27
2023-02-19T01:23:53.213Z,9.15
2023-02-19T01:26:39.186Z,9.27
2023-02-19T01:29:26.251Z,9.26
2023-02-19T01:32:06.721Z,9.17
2023-02-19T01:34:47.799Z,9.12
2023-02-19T01:37:22.099Z,9.07
2023-02-19T01:40:00.886Z,9.06
2023-02-19T01:42:41.420Z,9.00
2023-02-19T01:45:32.494Z,8.93
2023-02-19T01:48:09.745Z,8.92
2023-02-19T01:50:51.163Z,8.88
2023-02-19T01:53:32.717Z,8.82
2023-02-19T01:56:11.290Z,8.59
2023-02-19T01:58:57.626Z,8.54
2023-02-19T02:01:28.108Z,8.64
2023-02-19T02:04:09.377Z,8.54
2023-02-19T02:07:28.121Z,8.43
2023-02-19T02:10:17.663Z,8.39
2023-02-19T02:16:04.603Z,8.14
2023-02-19T02:18:58.943Z,8.19
2023-02-19T02:22:02.238Z,8.23
2023-02-19T02:25:11.880Z,8.26
2023-02-19T02:28:00.876Z,8.24
2023-02-19T02:30:50.603Z,8.28
2023-02-19T02:33:33.175Z,8.29
2023-02-19T02:36:22.354Z,8.32
2023-02-19T02:39:02.095Z,8.34
2023-02-19T02:41:38.801Z,8.35
2023-02-19T02:44:13.648Z,8.35
2023-02-19T02:47:03.379Z,8.32
2023-02-19T02:50:10.497Z,8.32
2023-02-19T02:53:02.377Z,8.35
2023-02-19T02:55:45.383Z,8.29
2023-02-19T02:58:36.905Z,8.37
2023-02-19T03:01:37.183Z,8.36
2023-02-19T03:04:32.785Z,8.15
2023-02-19T03:07:12.463Z,8.25
2023-02-19T03:09:51.639Z,8.29
2023-02-19T03:12:41.215Z,8.26
2023-02-19T03:15:32.413Z,8.26
2023-02-19T03:18:24.486Z,8.33
2023-02-19T03:21:07.206Z,8.26
2023-02-19T03:23:55.974Z,8.18
2023-02-19T03:26:29.260Z,8.22
2023-02-19T03:29:18.197Z,8.21
2023-02-19T03:32:05.398Z,8.06
2023-02-19T03:34:50.763Z,8.11
2023-02-19T03:37:45.224Z,8.02
2023-02-19T03:40:28.740Z,8.07
2023-02-19T03:43:16.049Z,8.01
2023-02-19T03:46:10.453Z,7.93
2023-02-19T03:49:02.601Z,7.82
2023-02-19T03:51:52.071Z,7.75
2023-02-19T03:54:46.145Z,7.74
2023-02-19T03:57:39.591Z,7.69
2023-02-19T04:00:23.506Z,7.62
2023-02-19T04:03:12.601Z,7.56
2023-02-19T04:05:56.064Z,7.50
2023-02-19T04:08:41.802Z,7.44
2023-02-19T04:11:28.098Z,7.40
2023-02-19T04:14:16.146Z,7.46
2023-02-19T04:16:56.801Z,7.46
2023-02-19T04:19:35.875Z,7.51
2023-02-19T04:22:29.789Z,7.48
2023-02-19T04:25:06.902Z,7.47
2023-02-19T04:28:01.226Z,7.45
2023-02-19T04:30:43.988Z,7.46
2023-02-19T04:33:18.935Z,7.48
2023-02-19T04:35:58.337Z,7.49
2023-02-19T04:38:34.396Z,7.23
2023-02-19T04:41:13.758Z,7.18
2023-02-19T04:46:59.006Z,7.44
2023-02-19T04:49:41.065Z,7.24
2023-02-19T04:52:21.418Z,7.48
2023-02-19T04:54:57.193Z,7.49
2023-02-19T04:57:56.627Z,7.32
2023-02-19T05:00:51.425Z,7.36
2023-02-19T05:03:31.106Z,7.33
2023-02-19T05:06:11.992Z,7.34
2023-02-19T05:08:50.538Z,7.28
2023-02-19T05:11:34.001Z,7.30
2023-02-19T05:14:15.112Z,7.13
2023-02-19T05:16:58.695Z,7.30
2023-02-19T05:19:34.492Z,7.23
2023-02-19T05:22:18.548Z,7.26
2023-02-19T05:24:55.598Z,7.31
2023-02-19T05:27:30.760Z,7.29
2023-02-19T05:30:02.965Z,7.30
2023-02-19T05:32:44.262Z,7.15
2023-02-19T05:35:30.044Z,7.06
2023-02-19T05:38:15.935Z,7.07
2023-02-19T05:40:58.162Z,7.20
2023-02-19T05:43:40.968Z,7.20
2023-02-19T05:46:17.515Z,7.19
2023-02-19T05:48:59.851Z,7.20
2023-02-19T05:51:35.698Z,7.18
2023-02-19T05:54:06.923Z,7.24
2023-02-19T05:56:40.402Z,7.21
2023-02-19T05:59:22.067Z,7.18
2023-02-19T06:02:10.138Z,7.17
2023-02-19T06:04:55.588Z,7.19
2023-02-19T06:07:28.194Z,7.16
2023-02-19T06:10:12.692Z,7.12
2023-02-19T06:12:54.334Z,7.19
2023-02-19T06:15:33.318Z,7.18
2023-02-19T06:18:12.941Z,7.20
2023-02-19T06:20:58.017Z,7.24
2023-02-19T06:23:50.887Z,7.30
2023-02-19T06:26:32.325Z,7.36
2023-02-19T06:29:05.339Z,7.30
2023-02-19T06:31:56.136Z,7.45
2023-02-19T06:34:39.239Z,7.31
2023-02-19T06:37:28.264Z,7.53
2023-02-19T06:40:16.225Z,7.57
2023-02-19T06:42:49.201Z,7.61
2023-02-19T06:45:32.168Z,7.74
2023-02-19T06:48:07.585Z,7.79
2023-02-19T06:50:43.619Z,7.82
2023-02-19T06:53:33.654Z,7.96
2023-02-19T06:56:14.018Z,7.96
2023-02-19T06:58:47.315Z,8.02
2023-02-19T07:01:35.164Z,8.07
2023-02-19T07:04:16.339Z,8.08
2023-02-19T07:06:51.494Z,8.14
2023-02-19T07:09:32.209Z,8.24
2023-02-19T07:12:19.640Z,8.35
2023-02-19T07:15:02.887Z,8.46
2023-02-19T07:17:34.042Z,8.53
2023-02-19T07:20:13.146Z,8.61
2023-02-19T07:22:50.862Z,8.72
2023-02-19T07:25:31.413Z,8.82
2023-02-19T07:28:06.374Z,8.93
2023-02-19T07:30:42.067Z,9.05
2023-02-19T07:33:21.648Z,8.80
2023-02-19T07:35:57.190Z,9.28
2023-02-19T07:38:53.744Z,9.39
2023-02-19T07:41:36.939Z,9.49
2023-02-19T07:44:20.409Z,9.64
2023-02-19T07:47:04.342Z,9.78
2023-02-19T07:49:41.134Z,9.84
2023-02-19T07:52:21.581Z,9.62
2023-02-19T07:55:04.782Z,10.03
2023-02-19T07:57:49.950Z,10.16
2023-02-19T08:00:34.565Z,10.24
2023-02-19T08:03:09.597Z,10.28
2023-02-19T08:05:57.706Z,10.35
2023-02-19T08:08:40.654Z,10.42
2023-02-19T08:11:31.867Z,10.52
2023-02-19T08:14:20.723Z,10.59
2023-02-19T08:17:12.147Z,10.69
2023-02-19T08:20:00.868Z,10.72
2023-02-19T08:22:33.296Z,10.92
2023-02-19T08:25:12.557Z,11.02
2023-02-19T08:27:53.432Z,10.96
2023-02-19T08:30:44.560Z,11.31
2023-02-19T08:33:47.024Z,11.42
2023-02-19T08:36:27.799Z,11.52
2023-02-19T08:39:00.170Z,11.50
2023-02-19T08:41:37.452Z,11.79
2023-02-19T08:44:13.565Z,11.84
2023-02-19T08:47:01.157Z,11.95
2023-02-19T08:49:39.109Z,11.79
2023-02-19T08:52:13.291Z,12.06
2023-02-19T08:54:47.675Z,12.20
2023-02-19T08:57:50.592Z,12.18
2023-02-19T09:00:30.156Z,12.37
2023-02-19T09:03:13.525Z,12.47
2023-02-19T09:05:52.921Z,12.62
2023-02-19T09:08:34.950Z,12.74
2023-02-19T09:11:14.304Z,12.88
2023-02-19T09:13:50.107Z,13.02
2023-02-19T09:16:28.552Z,13.13
2023-02-19T09:19:19.521Z,13.25
2023-02-19T09:21:56.213Z,13.36
2023-02-19T09:24:36.413Z,13.56
2023-02-19T09:27:23.322Z,13.45
2023-02-19T09:30:02.490Z,13.83
2023-02-19T09:32:47.394Z,13.98
2023-02-19T09:35:36.759Z,14.06
2023-02-19T09:38:20.630Z,14.32
2023-02-19T09:40:57.702Z,14.38
2023-02-19T09:43:31.060Z,14.56
2023-02-19T09:46:25.933Z,14.62
2023-02-19T09:49:17.397Z,14.67
2023-02-19T09:52:07.403Z,14.77
2023-02-19T09:54:45.865Z,14.82
2023-02-19T09:57:23.568Z,14.84
2023-02-19T10:00:15.052Z,14.90
2023-02-19T10:02:59.943Z,14.86
2023-02-19T10:05:36.477Z,14.96
2023-02-19T10:08:21.775Z,14.98
2023-02-19T10:10:57.650Z,14.99
2023-02-19T10:13:46.070Z,14.97
2023-02-19T10:16:26.651Z,15.07
2023-02-19T10:19:07.311Z,15.10
2023-02-19T10:21:45.471Z,15.39
2023-02-19T10:24:24.766Z,15.52
2023-02-19T10:27:07.011Z,15.58
2023-02-19T10:29:40.257Z,15.54
2023-02-19T10:32:28.436Z,15.51
2023-02-19T10:35:22.144Z,15.53
2023-02-19T10:38:02.616Z,15.55
2023-02-19T10:40:42.301Z,15.67
2023-02-19T10:43:38.975Z,15.80
2023-02-19T10:46:27.323Z,15.88
2023-02-19T10:49:06.803Z,15.84
2023-02-19T10:51:43.483Z,15.85
2023-02-19T10:54:33.788Z,15.85
2023-02-19T10:57:40.959Z,15.92
2023-02-19T11:00:38.314Z,15.89
2023-02-19T11:03:29.110Z,15.99
2023-02-19T11:06:26.120Z,16.05
2023-02-19T11:09:03.185Z,16.15
2023-02-19T11:11:43.741Z,16.30
2023-02-19T11:14:19.798Z,16.40
2023-02-19T11:17:28.836Z,16.50
2023-02-19T11:20:10.189Z,16.45
2023-02-19T11:22:50.693Z,16.50
2023-02-19T11:25:33.205Z,16.53
2023-02-19T11:28:41.732Z,16.52
2023-02-19T11:31:33.788Z,16.52
2023-02-19T11:34:37.455Z,16.56
2023-02-19T11:37:28.385Z,16.61
2023-02-19T11:40:01.948Z,16.64
2023-02-19T11:42:48.997Z,16.52
2023-02-19T11:45:56.362Z,16.45
2023-02-19T11:49:07.060Z,16.63
2023-02-19T11:52:02.665Z,16.39
2023-02-19T11:54:51.962Z,16.56
2023-02-19T11:57:52.990Z,16.35
2023-02-19T12:00:35.452Z,16.29
2023-02-19T12:03:28.666Z,16.28
2023-02-19T12:06:17.248Z,16.31
2023-02-19T12:09:23.802Z,16.25
2023-02-19T12:12:32.476Z,16.20
2023-02-19T12:15:44.069Z,16.16
2023-02-19T12:18:40.371Z,16.26
2023-02-19T12:21:30.385Z,16.15
2023-02-19T12:24:47.521Z,16.18
2023-02-19T12:27:47.317Z,16.16
2023-02-19T12:30:33.374Z,16.13
2023-02-19T12:33:38.145Z,16.16
2023-02-19T12:36:34.337Z,16.08
2023-02-19T12:39:13.150Z,16.29
2023-02-19T12:42:03.605Z,16.51
2023-02-19T12:44:45.447Z,16.65
2023-02-19T12:47:23.619Z,16.74
2023-02-19T12:50:09.279Z,16.68
2023-02-19T12:52:46.270Z,16.82
2023-02-19T12:55:31.387Z,16.72
2023-02-19T12:58:24.615Z,16.62
2023-02-19T13:01:02.251Z,16.51
2023-02-19T13:03:52.271Z,16.34
2023-02-19T13:06:37.287Z,16.32
2023-02-19T13:09:17.384Z,16.19
2023-02-19T13:12:03.757Z,16.19
2023-02-19T13:14:43.441Z,16.21
2023-02-19T13:17:32.198Z,16.10
2023-02-19T13:20:11.705Z,16.13
2023-02-19T13:23:05.746Z,16.00
2023-02-19T13:26:00.515Z,16.03
2023-02-19T13:28:52.900Z,16.06
2023-02-19T13:32:19.473Z,16.08
2023-02-19T13:35:04.185Z,15.99
2023-02-19T13:37:40.738Z,16.07
2023-02-19T13:40:45.728Z,16.18
2023-02-19T13:43:30.269Z,16.20
2023-02-19T13:46:08.294Z,16.22
2023-02-19T13:48:48.389Z,16.30
2023-02-19T13:51:56.808Z,16.35
2023-02-19T13:54:33.286Z,16.39
2023-02-19T13:57:33.978Z,16.43
2023-02-19T14:00:57.225Z,16.46
2023-02-19T14:03:35.360Z,16.38
2023-02-19T14:06:19.180Z,16.33
2023-02-19T14:08:56.865Z,16.29
2023-02-19T14:12:10.388Z,16.27
2023-02-19T14:14:46.302Z,16.07
2023-02-19T14:17:36.102Z,16.20
2023-02-19T14:20:50.098Z,16.18
2023-02-19T14:23:31.303Z,16.01
2023-02-19T14:26:03.461Z,16.08
2023-02-19T14:28:43.561Z,16.06
2023-02-19T14:31:31.453Z,15.98
2023-02-19T14:34:12.632Z,15.98
2023-02-19T14:36:56.208Z,15.93
2023-02-19T14:39:35.711Z,15.71
2023-02-19T14:42:17.729Z,15.84
2023-02-19T14:44:58.989Z,15.86
2023-02-19T14:47:44.135Z,15.88
2023-02-19T14:50:28.716Z,15.92
2023-02-19T14:53:04.608Z,16.00
2023-02-19T14:55:46.560Z,15.99
2023-02-19T14:58:24.724Z,15.98
2023-02-19T15:00:57.412Z,16.01
2023-02-19T15:03:47.517Z,16.01
2023-02-19T15:06:26.448Z,15.98
2023-02-19T15:09:04.455Z,15.98
2023-02-19T15:11:45.481Z,15.94
2023-02-19T15:14:24.118Z,15.86
2023-02-19T15:17:04.202Z,15.86
2023-02-19T15:19:44.675Z,15.91
2023-02-19T15:22:24.289Z,15.86
2023-02-19T15:25:02.253Z,15.83
2023-02-19T15:27:49.434Z,15.78
2023-02-19T15:30:30.520Z,15.77
2023-02-19T15:33:07.272Z,15.71
2023-02-19T15:35:45.997Z,15.59
2023-02-19T15:38:21.958Z,15.62
2023-02-19T15:40:57.406Z,15.56
2023-02-19T15:43:39.468Z,15.55
2023-02-19T15:46:23.461Z,15.52
2023-02-19T15:49:01.512Z,15.48
2023-02-19T15:51:44.692Z,15.54
2023-02-19T15:54:27.220Z,15.50
2023-02-19T15:57:13.634Z,15.52
2023-02-19T15:59:58.727Z,15.55
2023-02-19T16:02:32.207Z,15.54
2023-02-19T16:05:08.413Z,15.51
2023-02-19T16:07:44.791Z,15.40
2023-02-19T16:10:31.637Z,15.32
2023-02-19T16:13:09.502Z,15.30
2023-02-19T16:15:47.336Z,15.09
2023-02-19T16:18:37.826Z,15.05
2023-02-19T16:21:17.163Z,14.98
2023-02-19T16:23:50.608Z,14.96
2023-02-19T16:26:31.528Z,14.94
2023-02-19T16:29:24.335Z,14.85
2023-02-19T16:32:08.110Z,14.74
2023-02-19T16:34:50.896Z,14.61
2023-02-19T16:37:46.720Z,14.57
2023-02-19T16:41:19.580Z,14.60
2023-02-19T16:43:52.295Z,14.55
2023-02-19T16:46:31.530Z,14.45
2023-02-19T16:49:16.514Z,14.44
2023-02-19T16:52:02.140Z,14.40
2023-02-19T16:54:46.056Z,14.36
2023-02-19T16:57:29.121Z,14.28
2023-02-19T17:00:05.287Z,14.27
2023-02-19T17:02:45.972Z,14.31
2023-02-19T17:05:24.324Z,14.22
2023-02-19T17:08:00.102Z,14.19
2023-02-19T17:10:31.787Z,14.09
2023-02-19T17:13:04.053Z,13.97
2023-02-19T17:15:38.270Z,13.69
2023-02-19T17:18:16.284Z,13.92
2023-02-19T17:21:02.960Z,13.81
2023-02-19T17:23:34.289Z,13.72
2023-02-19T17:26:19.984Z,13.57
2023-02-19T17:28:59.584Z,13.64
2023-02-19T17:31:35.409Z,13.41
2023-02-19T17:34:10.388Z,13.51
2023-02-19T17:36:48.230Z,13.38
2023-02-19T17:39:25.622Z,13.36
2023-02-19T17:42:04.378Z,13.30
2023-02-19T17:44:37.552Z,13.23
2023-02-19T17:47:08.532Z,13.03
2023-02-19T17:49:45.894Z,13.20
2023-02-19T17:52:22.143Z,13.18
2023-02-19T17:54:57.854Z,12.97
2023-02-19T17:57:36.312Z,13.11
2023-02-19T18:00:13.744Z,13.03
2023-02-19T18:02:46.297Z,13.02
2023-02-19T18:05:20.156Z,12.87
2023-02-19T18:07:55.526Z,12.92
2023-02-19T18:10:29.615Z,12.97
2023-02-19T18:13:05.925Z,12.98
2023-02-19T18:15:36.410Z,12.98
2023-02-19T18:18:15.661Z,12.95
2023-02-19T18:20:52.713Z,12.87
2023-02-19T18:23:29.063Z,12.81
2023-02-19T18:26:00.982Z,12.80
2023-02-19T18:28:32.539Z,12.76
2023-02-19T18:31:07.559Z,12.68
2023-02-19T18:33:38.076Z,12.63
2023-02-19T18:36:13.836Z,12.62
2023-02-19T18:38:53.573Z,12.56
2023-02-19T18:41:36.026Z,12.54
2023-02-19T18:44:10.730Z,12.33
2023-02-19T18:46:43.985Z,12.50
2023-02-19T18:49:24.835Z,12.49
2023-02-19T18:51:56.188Z,12.40
2023-02-19T18:54:42.933Z,12.46
2023-02-19T18:57:14.176Z,12.49
2023-02-19T18:59:45.234Z,12.49
2023-02-19T19:02:20.107Z,12.44
2023-02-19T19:04:58.874Z,12.39
2023-02-19T19:07:29.522Z,12.40
2023-02-19T19:10:15.761Z,12.29
2023-02-19T19:12:55.060Z,12.34
2023-02-19T19:15:28.251Z,12.31
2023-02-19T19:18:00.938Z,12.30
2023-02-19T19:20:39.009Z,12.25
2023-02-19T19:23:16.019Z,12.24
2023-02-19T19:26:07.681Z,12.08
2023-02-19T19:28:47.989Z,12.07
2023-02-19T19:31:28.047Z,11.96
2023-02-19T19:34:04.819Z,11.94
2023-02-19T19:36:46.270Z,11.92
2023-02-19T19:39:20.564Z,11.95
2023-02-19T19:42:06.777Z,11.79
2023-02-19T19:44:46.643Z,11.70
2023-02-19T19:47:17.552Z,11.66
2023-02-19T19:50:00.646Z,11.62
2023-02-19T19:52:33.302Z,11.67
2023-02-19T19:55:04.841Z,11.68
2023-02-19T19:57:41.988Z,11.60
2023-02-19T20:00:21.553Z,11.63
2023-02-19T20:03:00.592Z,11.56
2023-02-19T20:05:35.166Z,11.53
2023-02-19T20:08:11.647Z,11.48
2023-02-19T20:10:47.232Z,11.44
2023-02-19T20:13:37.577Z,11.40
2023-02-19T20:16:17.755Z,11.40
2023-02-19T20:19:01.998Z,11.24
2023-02-19T20:21:41.212Z,11.47
2023-02-19T20:24:17.198Z,11.59
2023-02-19T20:27:05.331Z,11.54
2023-02-19T20:29:52.125Z,11.76
2023-02-19T20:32:32.615Z,11.74
2023-02-19T20:35:07.233Z,11.61
2023-02-19T20:37:53.985Z,11.74
2023-02-19T20:40:41.636Z,11.72
2023-02-19T20:43:16.596Z,11.58
2023-02-19T20:46:04.653Z,11.43
2023-02-19T20:48:37.235Z,11.44
2023-02-19T20:51:08.787Z,11.41
2023-02-19T20:53:55.862Z,11.41
2023-02-19T20:56:34.026Z,11.23
2023-02-19T20:59:08.860Z,11.39
2023-02-19T21:01:57.771Z,11.40
2023-02-19T21:04:40.930Z,11.42
2023-02-19T21:07:19.276Z,11.28
2023-02-19T21:09:58.738Z,11.05
2023-02-19T21:12:33.902Z,10.78
2023-02-19T21:15:15.438Z,10.72
2023-02-19T21:17:54.380Z,10.61
2023-02-19T21:20:25.260Z,10.50
2023-02-19T21:23:05.399Z,10.47
2023-02-19T21:25:41.678Z,10.46
2023-02-19T21:28:13.778Z,10.38
2023-02-19T21:30:46.786Z,10.35
2023-02-19T21:33:31.521Z,10.30
2023-02-19T21:36:06.601Z,10.37
2023-02-19T21:38:39.109Z,10.41
2023-02-19T21:41:14.140Z,10.34
2023-02-19T21:43:44.783Z,10.47
2023-02-19T21:46:27.660Z,10.56
2023-02-19T21:49:13.137Z,10.53
2023-02-19T21:51:53.126Z,10.58
2023-02-19T21:54:31.423Z,10.60
2023-02-19T21:57:14.586Z,10.57
2023-02-19T21:59:50.303Z,10.64
2023-02-19T22:02:31.847Z,10.64
2023-02-19T22:05:19.337Z,10.68
2023-02-19T22:07:57.212Z,10.68
2023-02-19T22:10:49.528Z,10.67
2023-02-19T22:13:25.692Z,10.67
2023-02-19T22:16:02.931Z,10.54
2023-02-19T22:18:45.228Z,10.51
2023-02-19T22:21:28.087Z,10.09
2023-02-19T22:24:05.057Z,10.30
2023-02-19T22:26:44.340Z,10.25
2023-02-19T22:29:25.825Z,10.09
2023-02-19T22:32:04.006Z,10.06
2023-02-19T22:34:48.001Z,10.01
2023-02-19T22:37:28.931Z,9.93
2023-02-19T22:40:09.904Z,9.87
2023-02-19T22:42:43.592Z,9.74
2023-02-19T22:45:23.032Z,9.88
2023-02-19T22:48:03.474Z,9.89
2023-02-19T22:50:38.866Z,9.87
2023-02-19T22:53:32.900Z,9.78
2023-02-19T22:56:09.310Z,9.82
2023-02-19T22:58:45.066Z,9.83
2023-02-19T23:01:23.620Z,9.76
2023-02-19T23:04:01.232Z,9.76
2023-02-19T23:06:38.157Z,9.82
2023-02-19T23:09:23.480Z,9.63
2023-02-19T23:11:55.353Z,9.76
2023-02-19T23:14:35.833Z,9.62
2023-02-19T23:17:09.078Z,9.45
2023-02-19T23:19:51.093Z,9.45
2023-02-19T23:22:28.761Z,9.56
2023-02-19T23:25:14.822Z,9.70
2023-02-19T23:27:51.556Z,9.78
2023-02-19T23:30:26.373Z,9.79
2023-02-19T23:32:59.499Z,9.93
2023-02-19T23:35:31.857Z,9.93
2023-02-19T23:38:07.110Z,9.85
2023-02-19T23:40:49.660Z,10.01
2023-02-19T23:43:36.953Z,10.08
2023-02-19T23:46:12.119Z,10.00
2023-02-19T23:48:57.680Z,10.10
2023-02-19T23:51:36.618Z,10.12
2023-02-19T23:54:17.475Z,10.03
2023-02-19T23:57:11.069Z,10.13
2023-02-19T23:59:49.199Z,10.17
